Time;durP1;ratioP1;P1;durP2;ratioP2;P2;SDS_P1;SDS_P2;PMS_P1;PMS_P2;Temp;Humidity;BMP_temperature;BMP_pressure;BME280_temperature;BME280_humidity;BME280_pressure;Samples;Min_cycle;Max_cycle;Signal;HPM_P1;HPM_P2
2021/04/17 00:02:11;;;;;;;5.35;2.45;;;14.30;44.80;;;;;;4997718;28;20049;-76
2021/04/17 00:04:40;;;;;;;4.85;2.33;;;14.30;44.80;;;;;;5015184;28;20390;-76
2021/04/17 00:07:09;;;;;;;3.28;2.60;;;14.30;44.80;;;;;;5015152;28;20084;-75
2021/04/17 00:09:35;;;;;;;3.55;2.30;;;14.30;44.80;;;;;;5015180;28;20443;-76
2021/04/17 00:12:14;;;;;;;3.38;2.15;;;14.20;44.70;;;;;;5014067;28;20038;-75
2021/04/17 00:14:41;;;;;;;3.13;1.88;;;14.20;44.70;;;;;;5013831;28;20049;-77
2021/04/17 00:17:08;;;;;;;3.95;2.28;;;14.20;44.80;;;;;;5015393;28;20452;-76
2021/04/17 00:19:35;;;;;;;2.65;2.15;;;14.20;44.70;;;;;;5014851;28;20030;-76
2021/04/17 00:22:02;;;;;;;4.65;2.20;;;14.20;44.80;;;;;;5014477;28;20042;-77
2021/04/17 00:24:28;;;;;;;4.00;2.05;;;14.20;44.80;;;;;;4997358;28;20069;-76
2021/04/17 00:26:54;;;;;;;2.38;1.70;;;14.10;44.70;;;;;;5014873;28;20085;-77
2021/04/17 00:29:19;;;;;;;2.70;1.80;;;14.10;44.70;;;;;;5014511;28;20073;-76
2021/04/17 00:31:45;;;;;;;4.07;2.17;;;14.10;44.50;;;;;;5013411;28;20079;-77
2021/04/17 00:34:12;;;;;;;4.22;1.98;;;14.10;44.50;;;;;;5014921;28;20049;-76
2021/04/17 00:36:37;;;;;;;2.53;1.85;;;14.10;44.50;;;;;;5013312;28;20038;-77
2021/04/17 00:39:06;;;;;;;3.67;2.00;;;14.00;44.50;;;;;;5014804;28;20030;-78
2021/04/17 00:41:32;;;;;;;2.63;2.15;;;14.00;44.50;;;;;;4996779;28;20125;-78
2021/04/17 00:43:58;;;;;;;5.10;2.10;;;14.00;44.50;;;;;;5014614;28;20034;-77
2021/04/17 00:46:24;;;;;;;3.00;2.05;;;14.00;44.50;;;;;;5013332;28;20405;-78
2021/04/17 00:48:51;;;;;;;2.00;1.80;;;14.00;44.40;;;;;;5014731;28;20076;-78
2021/04/17 00:51:17;;;;;;;2.95;1.60;;;13.90;44.30;;;;;;5014158;28;20041;-78
2021/04/17 00:53:44;;;;;;;3.38;1.80;;;13.90;44.30;;;;;;5013106;28;20034;-77
2021/04/17 00:56:11;;;;;;;1.75;1.63;;;13.90;44.30;;;;;;4996582;28;20513;-78
2021/04/17 00:58:39;;;;;;;3.05;2.00;;;13.90;44.30;;;;;;5014264;28;20385;-77
2021/04/17 01:01:05;;;;;;;4.00;2.05;;;13.90;44.20;;;;;;4996218;28;20048;-78
2021/04/17 01:04:05;;;;;;;5.53;2.17;;;13.90;44.20;;;;;;5013818;28;20051;-76
2021/04/17 01:06:34;;;;;;;2.83;2.08;;;13.80;44.10;;;;;;5014079;28;20401;-75
2021/04/17 01:09:17;;;;;;;3.63;1.90;;;13.70;44.10;;;;;;5013006;28;20071;-75
2021/04/17 01:11:47;;;;;;;2.17;1.77;;;13.80;44.10;;;;;;4996387;28;20083;-76
2021/04/17 01:14:15;;;;;;;2.33;2.10;;;13.80;44.10;;;;;;5014189;28;20034;-76
2021/04/17 01:16:43;;;;;;;2.90;2.28;;;13.80;44.00;;;;;;5012931;28;20406;-77
2021/04/17 01:19:12;;;;;;;2.92;2.17;;;13.70;43.90;;;;;;5013919;28;20026;-77
2021/04/17 01:21:40;;;;;;;3.45;1.88;;;13.70;43.90;;;;;;5013891;28;20061;-76
2021/04/17 01:24:11;;;;;;;2.40;1.73;;;13.70;43.90;;;;;;5013753;28;20076;-76
2021/04/17 01:26:38;;;;;;;3.38;2.00;;;13.60;43.80;;;;;;5014121;28;20033;-77
2021/04/17 01:29:05;;;;;;;3.75;2.10;;;13.60;43.90;;;;;;5012811;28;20486;-77
2021/04/17 01:31:34;;;;;;;5.18;1.88;;;13.60;43.80;;;;;;5013543;28;20095;-77
2021/04/17 01:34:01;;;;;;;2.95;1.45;;;13.60;43.80;;;;;;5013775;28;20041;-77
2021/04/17 01:36:30;;;;;;;3.50;1.35;;;13.50;43.70;;;;;;5013483;28;20049;-75
2021/04/17 01:39:06;;;;;;;2.20;1.50;;;13.50;43.60;;;;;;5012145;28;20544;-78
2021/04/17 01:41:37;;;;;;;2.03;1.58;;;13.50;43.70;;;;;;5013380;28;20074;-77
2021/04/17 01:44:08;;;;;;;4.07;2.00;;;13.50;43.50;;;;;;5012316;28;20041;-77
2021/04/17 01:46:40;;;;;;;2.47;1.73;;;13.40;43.60;;;;;;5013284;28;20518;-76
2021/04/17 01:49:09;;;;;;;1.83;1.60;;;13.40;43.50;;;;;;5012194;28;20561;-77
2021/04/17 01:51:38;;;;;;;4.78;1.73;;;13.40;43.50;;;;;;5011753;28;20505;-77
2021/04/17 01:54:09;;;;;;;3.63;1.80;;;13.40;43.50;;;;;;5013343;28;20096;-75
2021/04/17 01:56:36;;;;;;;3.85;1.92;;;13.40;43.40;;;;;;5013265;28;20045;-77
2021/04/17 01:59:02;;;;;;;2.65;1.90;;;13.30;43.40;;;;;;5013369;28;20120;-77
2021/04/17 02:01:29;;;;;;;3.92;2.13;;;13.30;43.40;;;;;;5013155;28;20133;-76
2021/04/17 02:03:55;;;;;;;2.50;1.83;;;13.30;43.40;;;;;;5012646;28;20124;-76
2021/04/17 02:06:21;;;;;;;3.35;1.48;;;13.30;43.40;;;;;;5012185;28;20129;-76
2021/04/17 02:08:47;;;;;;;3.90;1.92;;;13.30;43.30;;;;;;5011898;28;20075;-79
2021/04/17 02:11:13;;;;;;;1.77;1.67;;;13.30;43.10;;;;;;5013463;28;20049;-77
2021/04/17 02:13:40;;;;;;;3.90;1.75;;;13.20;43.10;;;;;;5012925;28;20041;-76
2021/04/17 02:16:15;;;;;;;3.53;1.77;;;13.20;43.20;;;;;;5011955;28;20042;-76
2021/04/17 02:18:46;;;;;;;1.70;1.60;;;13.10;43.10;;;;;;5012977;28;20025;-77
2021/04/17 02:21:20;;;;;;;3.65;1.92;;;13.20;43.10;;;;;;5013009;28;20049;-76
2021/04/17 02:23:47;;;;;;;3.38;1.80;;;13.20;43.00;;;;;;4995592;28;20037;-76
2021/04/17 02:26:13;;;;;;;2.88;2.03;;;13.20;43.00;;;;;;5013112;28;20057;-78
2021/04/17 02:28:40;;;;;;;3.25;1.55;;;13.20;42.90;;;;;;5012842;28;20073;-77
2021/04/17 02:31:06;;;;;;;2.78;1.67;;;13.20;42.80;;;;;;4995457;28;20042;-75
2021/04/17 02:33:32;;;;;;;3.47;1.80;;;13.10;42.80;;;;;;5013134;28;20380;-76
2021/04/17 02:35:58;;;;;;;1.73;1.63;;;13.10;42.80;;;;;;5012976;28;20040;-77
2021/04/17 02:38:24;;;;;;;5.07;1.67;;;13.10;42.80;;;;;;5011535;28;20481;-76
2021/04/17 02:40:50;;;;;;;3.08;1.67;;;13.10;42.80;;;;;;5012541;28;20049;-75
2021/04/17 02:43:16;;;;;;;1.40;1.30;;;13.10;42.60;;;;;;5013078;28;20034;-77
2021/04/17 02:45:42;;;;;;;1.85;1.60;;;13.10;42.50;;;;;;5011618;28;20080;-75
2021/04/17 02:48:08;;;;;;;4.50;1.70;;;13.10;42.50;;;;;;5012279;28;20050;-77
2021/04/17 02:50:34;;;;;;;4.72;1.60;;;13.10;42.50;;;;;;5012806;28;20049;-77
2021/04/17 02:53:00;;;;;;;2.28;1.52;;;13.10;42.40;;;;;;5012679;28;20437;-75
2021/04/17 02:55:26;;;;;;;3.28;1.65;;;13.10;42.30;;;;;;5012436;28;20034;-76
2021/04/17 02:57:52;;;;;;;4.30;1.83;;;13.00;42.20;;;;;;5012732;28;20540;-76
2021/04/17 03:00:24;;;;;;;3.95;1.45;;;13.00;42.20;;;;;;5011244;28;20049;-76
2021/04/17 03:02:51;;;;;;;4.18;1.60;;;13.00;42.10;;;;;;4994762;28;20125;-77
2021/04/17 03:05:18;;;;;;;4.97;1.70;;;13.00;42.20;;;;;;5012412;28;20405;-76
2021/04/17 03:07:44;;;;;;;2.13;1.60;;;13.00;42.10;;;;;;5012548;28;20083;-76
2021/04/17 03:10:11;;;;;;;3.10;1.50;;;13.00;42.10;;;;;;5012420;28;20435;-76
2021/04/17 03:12:37;;;;;;;2.13;1.73;;;12.90;41.90;;;;;;5012794;28;20045;-77
2021/04/17 03:15:05;;;;;;;2.30;1.60;;;13.00;42.10;;;;;;5014043;28;20096;-76
2021/04/17 03:17:31;;;;;;;3.33;1.38;;;13.00;41.90;;;;;;5014672;28;20092;-76
2021/04/17 03:19:57;;;;;;;2.50;1.60;;;13.00;41.80;;;;;;5015715;28;20040;-76
2021/04/17 03:22:23;;;;;;;3.70;1.50;;;12.90;41.80;;;;;;5016042;28;20045;-77
2021/04/17 03:24:49;;;;;;;5.35;1.90;;;13.00;41.80;;;;;;5016083;28;20402;-76
2021/04/17 03:27:15;;;;;;;4.93;1.50;;;13.00;41.80;;;;;;5016107;28;20497;-76
2021/04/17 03:29:42;;;;;;;3.92;1.52;;;13.00;41.60;;;;;;5016122;28;20052;-76
2021/04/17 03:32:08;;;;;;;2.85;1.60;;;13.00;41.60;;;;;;5015545;28;20034;-77
2021/04/17 03:34:34;;;;;;;3.70;1.40;;;13.00;41.60;;;;;;4998086;28;20042;-76
2021/04/17 03:37:00;;;;;;;3.83;1.50;;;13.00;41.50;;;;;;5015661;28;20107;-77
2021/04/17 03:39:26;;;;;;;1.30;0.98;;;13.00;41.50;;;;;;5015616;28;20092;-76
2021/04/17 03:41:52;;;;;;;3.20;1.30;;;13.10;41.50;;;;;;4997828;28;20410;-77
2021/04/17 03:44:18;;;;;;;2.17;1.50;;;13.10;41.50;;;;;;5015506;28;20477;-77
2021/04/17 03:46:44;;;;;;;1.63;1.38;;;13.10;41.40;;;;;;5014885;28;20104;-77
2021/04/17 03:49:10;;;;;;;3.22;1.52;;;13.10;41.30;;;;;;5014610;28;20089;-76
2021/04/17 03:51:36;;;;;;;4.32;1.30;;;13.20;41.30;;;;;;5015600;28;20188;-76
2021/04/17 03:54:02;;;;;;;1.98;1.17;;;13.10;41.20;;;;;;5015574;28;20041;-76
2021/04/17 03:56:28;;;;;;;3.10;1.38;;;13.20;41.30;;;;;;5015189;28;20128;-76
2021/04/17 03:58:54;;;;;;;2.97;1.30;;;13.20;41.30;;;;;;5015248;28;20130;-76
2021/04/17 04:01:19;;;;;;;2.75;1.30;;;13.20;41.20;;;;;;5014830;28;20041;-78
2021/04/17 04:03:45;;;;;;;3.58;1.38;;;13.30;41.20;;;;;;5015204;28;20038;-77
2021/04/17 04:06:11;;;;;;;4.25;1.95;;;13.20;41.20;;;;;;5015232;28;20038;-76
2021/04/17 04:08:37;;;;;;;1.85;1.23;;;13.30;41.90;;;;;;5015195;28;20084;-77
2021/04/17 04:11:03;;;;;;;2.45;1.73;;;13.20;41.10;;;;;;5015096;28;20088;-75
2021/04/17 04:13:29;;;;;;;5.63;1.52;;;13.20;41.20;;;;;;5014848;28;20116;-77
2021/04/17 04:15:55;;;;;;;2.33;1.17;;;13.20;41.10;;;;;;5014689;28;20072;-78
2021/04/17 04:18:21;;;;;;;1.75;1.20;;;13.20;41.10;;;;;;5014962;28;20141;-77
2021/04/17 04:20:48;;;;;;;2.65;1.13;;;13.10;41.10;;;;;;5017277;28;20091;-77
2021/04/17 04:23:14;;;;;;;1.80;1.00;;;13.10;41.10;;;;;;5023605;28;20046;-75
2021/04/17 04:25:40;;;;;;;1.42;1.33;;;13.10;41.10;;;;;;5025318;28;20452;-75
2021/04/17 04:28:06;;;;;;;4.32;1.23;;;13.20;41.10;;;;;;5022803;28;20033;-76
2021/04/17 04:30:33;;;;;;;2.05;1.10;;;13.10;41.10;;;;;;5006939;28;20438;-77
2021/04/17 04:32:59;;;;;;;3.60;1.20;;;13.20;41.10;;;;;;5024375;28;20044;-75
2021/04/17 04:35:25;;;;;;;2.72;1.33;;;13.20;41.10;;;;;;5021911;28;20038;-78
2021/04/17 04:37:51;;;;;;;1.15;0.98;;;13.20;41.10;;;;;;5025555;28;20044;-75
2021/04/17 04:40:17;;;;;;;3.92;1.50;;;13.20;41.20;;;;;;5023786;28;20029;-77
2021/04/17 04:42:43;;;;;;;3.47;1.30;;;13.20;41.20;;;;;;5033000;28;20521;-76
2021/04/17 04:45:11;;;;;;;3.10;1.20;;;13.20;41.10;;;;;;5025835;28;20119;-78
2021/04/17 04:47:37;;;;;;;2.40;1.55;;;13.20;41.20;;;;;;5006140;28;20057;-76
2021/04/17 04:50:08;;;;;;;4.80;1.30;;;13.30;41.10;;;;;;5025339;28;20029;-77
2021/04/17 04:52:34;;;;;;;2.58;1.35;;;13.30;41.10;;;;;;5015009;28;20516;-77
2021/04/17 04:55:00;;;;;;;5.05;1.15;;;13.40;41.10;;;;;;5014057;28;20042;-77
2021/04/17 04:57:26;;;;;;;4.90;1.33;;;13.50;41.10;;;;;;5013651;28;20042;-77
2021/04/17 04:59:52;;;;;;;3.25;1.38;;;13.50;40.90;;;;;;5013329;28;20508;-76
2021/04/17 05:02:19;;;;;;;2.22;1.50;;;13.70;40.80;;;;;;4995460;28;20490;-78
2021/04/17 05:05:15;;;;;;;5.90;1.77;;;14.00;40.70;;;;;;5013445;28;20061;-78
2021/04/17 05:07:41;;;;;;;2.90;1.37;;;14.40;39.90;;;;;;4968567;28;20080;-77
2021/04/17 05:10:08;;;;;;;1.98;1.38;;;14.70;39.80;;;;;;5013899;28;20084;-77
2021/04/17 05:12:34;;;;;;;2.45;1.38;;;15.20;39.40;;;;;;5012347;28;20038;-77
2021/04/17 05:15:00;;;;;;;5.05;1.33;;;15.50;38.90;;;;;;5012559;28;20044;-77
2021/04/17 05:17:25;;;;;;;2.17;1.20;;;15.90;38.50;;;;;;4996086;28;20541;-78
2021/04/17 05:19:53;;;;;;;4.30;1.52;;;16.30;38.00;;;;;;5012388;28;20034;-77
2021/04/17 05:22:19;;;;;;;5.68;1.55;;;16.50;37.50;;;;;;5013538;28;20056;-78
2021/04/17 05:24:46;;;;;;;2.85;1.50;;;16.80;37.30;;;;;;4995978;28;20041;-77
2021/04/17 05:27:12;;;;;;;3.65;1.40;;;16.90;37.00;;;;;;5013430;28;20046;-76
2021/04/17 05:29:38;;;;;;;3.63;1.48;;;16.90;36.80;;;;;;4995823;28;20036;-78
2021/04/17 05:32:05;;;;;;;6.40;2.22;;;17.00;36.50;;;;;;5013931;28;20172;-76
2021/04/17 05:34:31;;;;;;;2.33;1.67;;;17.00;36.40;;;;;;5013718;28;20042;-78
2021/04/17 05:36:57;;;;;;;5.15;1.33;;;17.00;36.40;;;;;;5013618;28;20092;-77
2021/04/17 05:39:22;;;;;;;1.85;1.33;;;17.00;36.50;;;;;;5012445;28;20121;-80
2021/04/17 05:41:48;;;;;;;4.38;1.50;;;16.90;36.50;;;;;;5012833;28;20046;-76
2021/04/17 05:44:15;;;;;;;4.63;1.65;;;16.90;36.50;;;;;;5013102;28;20034;-77
2021/04/17 05:46:43;;;;;;;3.47;1.60;;;16.80;36.60;;;;;;5012124;28;20058;-80
2021/04/17 05:49:11;;;;;;;3.08;1.35;;;16.90;36.80;;;;;;5012056;28;20076;-78
2021/04/17 05:51:39;;;;;;;5.88;1.70;;;17.20;38.60;;;;;;5012708;28;20034;-77
2021/04/17 05:54:06;;;;;;;4.45;1.48;;;17.70;38.00;;;;;;5011844;28;20041;-77
2021/04/17 05:56:32;;;;;;;3.08;1.67;;;18.10;37.10;;;;;;5013079;28;20038;-76
2021/04/17 05:58:59;;;;;;;3.20;1.70;;;18.60;36.30;;;;;;5012074;28;20498;-76
2021/04/17 06:01:25;;;;;;;2.25;1.67;;;19.00;35.60;;;;;;4995338;28;20050;-74
2021/04/17 06:03:51;;;;;;;2.88;1.80;;;19.30;35.20;;;;;;5013131;28;20397;-77
2021/04/17 06:06:17;;;;;;;6.22;2.08;;;19.60;34.70;;;;;;5012142;28;20125;-77
2021/04/17 06:08:43;;;;;;;3.65;2.05;;;19.80;34.30;;;;;;5012939;28;20484;-77
2021/04/17 06:11:10;;;;;;;4.18;2.13;;;20.10;34.00;;;;;;5011592;28;20064;-77
2021/04/17 06:13:36;;;;;;;5.85;2.10;;;20.30;33.70;;;;;;5011880;28;20172;-75
2021/04/17 06:16:07;;;;;;;2.75;2.13;;;20.50;33.40;;;;;;5012647;28;20041;-77
2021/04/17 06:18:34;;;;;;;4.95;2.20;;;20.70;33.30;;;;;;4995186;28;20034;-76
2021/04/17 06:21:01;;;;;;;3.72;2.17;;;21.00;33.00;;;;;;4995090;28;20049;-78
2021/04/17 06:23:27;;;;;;;5.53;2.13;;;21.30;32.80;;;;;;5012826;28;20045;-77
2021/04/17 06:25:53;;;;;;;5.97;2.63;;;21.40;32.50;;;;;;5013053;28;20402;-78
2021/04/17 06:28:20;;;;;;;5.82;2.00;;;21.60;32.40;;;;;;5012811;28;20084;-77
2021/04/17 06:30:46;;;;;;;6.55;2.20;;;21.80;32.30;;;;;;5013014;28;20125;-75
2021/04/17 06:33:12;;;;;;;8.43;2.38;;;21.90;32.00;;;;;;5012583;28;20402;-77
2021/04/17 06:35:39;;;;;;;10.10;2.33;;;22.10;31.90;;;;;;5012758;28;20034;-77
2021/04/17 06:38:12;;;;;;;7.13;2.28;;;22.30;31.90;;;;;;5012347;28;20041;-75
2021/04/17 06:40:39;;;;;;;3.65;2.08;;;22.40;32.10;;;;;;5011386;28;20038;-77
2021/04/17 06:43:05;;;;;;;4.07;2.10;;;22.50;31.40;;;;;;5012746;28;20099;-80
2021/04/17 06:45:34;;;;;;;6.18;2.13;;;22.60;31.20;;;;;;5012794;28;20034;-76
2021/04/17 06:48:06;;;;;;;6.00;2.10;;;22.70;31.10;;;;;;5012882;28;20103;-77
2021/04/17 06:50:34;;;;;;;5.18;2.15;;;22.70;30.90;;;;;;5015071;28;20048;-76
2021/04/17 06:53:09;;;;;;;7.32;2.17;;;22.80;30.80;;;;;;5016322;28;20044;-76
2021/04/17 06:55:36;;;;;;;4.53;2.20;;;22.80;30.70;;;;;;4999606;28;20042;-77
2021/04/17 06:58:02;;;;;;;3.28;2.28;;;22.70;30.80;;;;;;5000972;28;20040;-75
2021/04/17 07:00:29;;;;;;;6.38;2.20;;;22.80;30.80;;;;;;5017150;28;20493;-77
2021/04/17 07:02:55;;;;;;;3.95;2.45;;;22.90;30.90;;;;;;4999489;28;20103;-77
2021/04/17 07:05:21;;;;;;;9.48;2.40;;;22.90;31.10;;;;;;5016986;28;20057;-76
2021/04/17 07:07:47;;;;;;;5.55;1.85;;;23.00;31.20;;;;;;5016802;28;20512;-77
2021/04/17 07:10:14;;;;;;;7.53;2.22;;;23.10;31.10;;;;;;5016951;28;20034;-79
2021/04/17 07:12:44;;;;;;;5.03;2.53;;;23.10;30.90;;;;;;5016845;28;20504;-75
2021/04/17 07:15:11;;;;;;;5.65;2.38;;;23.10;30.90;;;;;;4998996;28;20037;-75
2021/04/17 07:17:38;;;;;;;4.82;2.00;;;23.10;30.80;;;;;;4999323;28;20045;-79
2021/04/17 07:20:09;;;;;;;5.15;2.20;;;23.10;30.80;;;;;;4982680;28;20029;-76
2021/04/17 07:22:37;;;;;;;3.78;2.40;;;23.00;30.70;;;;;;5014865;28;20077;-78
2021/04/17 07:25:06;;;;;;;5.07;2.10;;;23.00;30.80;;;;;;5015947;28;20034;-76
2021/04/17 07:27:44;;;;;;;4.20;2.30;;;22.90;30.90;;;;;;5016010;28;20128;-76
2021/04/17 07:30:16;;;;;;;3.03;2.28;;;22.80;30.90;;;;;;4998200;28;20528;-75
2021/04/17 07:32:47;;;;;;;4.55;2.25;;;22.70;31.10;;;;;;5015293;28;20037;-75
2021/04/17 07:35:20;;;;;;;6.22;2.60;;;22.70;31.30;;;;;;4998210;28;20464;-76
2021/04/17 07:38:17;;;;;;;3.47;2.30;;;22.70;31.40;;;;;;5014441;28;20080;-75
2021/04/17 07:41:01;;;;;;;3.67;2.40;;;22.60;31.60;;;;;;5015448;28;20046;-76
2021/04/17 07:43:51;;;;;;;4.78;2.63;;;22.60;31.70;;;;;;5015346;28;20030;-75
2021/04/17 07:46:39;;;;;;;4.88;2.30;;;22.50;31.80;;;;;;4997820;28;20426;-76
2021/04/17 07:49:18;;;;;;;3.85;2.30;;;22.50;31.70;;;;;;5015417;28;20033;-76
2021/04/17 07:52:17;;;;;;;4.85;2.67;;;22.40;32.80;;;;;;5014236;28;20567;-76
2021/04/17 07:55:03;;;;;;;4.85;2.70;;;22.40;32.30;;;;;;4971873;28;20041;-76
2021/04/17 07:57:46;;;;;;;4.95;2.80;;;22.30;32.00;;;;;;5015154;28;20030;-77
2021/04/17 08:00:20;;;;;;;4.53;2.60;;;22.20;32.30;;;;;;4997895;28;20505;-76
2021/04/17 08:02:48;;;;;;;5.18;2.53;;;22.20;32.40;;;;;;5014777;28;20046;-76
2021/04/17 08:05:15;;;;;;;7.65;2.90;;;22.10;32.40;;;;;;5015293;28;20038;-74
2021/04/17 08:07:42;;;;;;;4.80;2.70;;;22.10;32.40;;;;;;4998241;28;20049;-76
2021/04/17 08:10:10;;;;;;;7.03;2.85;;;22.00;32.40;;;;;;4997578;28;20042;-76
2021/04/17 08:12:38;;;;;;;4.18;2.90;;;21.90;32.70;;;;;;5014908;28;20095;-78
2021/04/17 08:15:06;;;;;;;4.72;2.80;;;21.90;32.80;;;;;;5015167;28;20034;-78
2021/04/17 08:17:32;;;;;;;6.15;3.15;;;21.90;32.90;;;;;;5014765;28;20542;-77
2021/04/17 08:19:59;;;;;;;7.88;2.80;;;21.80;33.10;;;;;;4997144;28;20410;-79
2021/04/17 08:22:26;;;;;;;7.97;3.75;;;21.80;33.50;;;;;;5014489;28;20038;-77
2021/04/17 08:24:53;;;;;;;4.47;3.47;;;21.70;34.00;;;;;;5015466;28;20382;-77
2021/04/17 08:27:19;;;;;;;7.82;3.15;;;21.70;33.90;;;;;;5014632;28;20038;-76
2021/04/17 08:29:54;;;;;;;5.78;3.25;;;21.60;33.70;;;;;;5014590;28;20034;-79
2021/04/17 08:32:30;;;;;;;5.13;3.30;;;21.60;33.90;;;;;;5014911;28;20410;-78
2021/04/17 08:35:08;;;;;;;8.60;3.30;;;21.60;34.00;;;;;;5014526;28;20045;-76
2021/04/17 08:37:52;;;;;;;10.13;3.28;;;21.60;35.20;;;;;;5014513;28;20045;-76
2021/04/17 08:40:36;;;;;;;6.43;3.30;;;21.60;37.90;;;;;;5014309;28;20552;-76
2021/04/17 08:43:22;;;;;;;6.43;3.70;;;21.70;38.50;;;;;;5014263;28;20057;-75
2021/04/17 08:46:05;;;;;;;8.18;3.92;;;21.80;38.50;;;;;;5000349;28;20045;-74
2021/04/17 08:48:49;;;;;;;11.32;3.78;;;21.80;39.40;;;;;;5013259;28;20033;-74
2021/04/17 08:51:21;;;;;;;6.82;3.70;;;22.00;39.50;;;;;;5014010;28;20121;-74
2021/04/17 08:54:12;;;;;;;6.38;3.72;;;22.00;39.20;;;;;;5014021;28;20125;-76
2021/04/17 08:56:52;;;;;;;7.38;4.00;;;22.00;38.50;;;;;;5005177;28;20046;-76
2021/04/17 08:59:26;;;;;;;8.73;3.55;;;22.00;38.30;;;;;;5014507;28;20045;-76
2021/04/17 09:01:53;;;;;;;5.72;4.07;;;22.00;38.20;;;;;;4996496;28;20445;-75
2021/04/17 09:04:22;;;;;;;7.43;3.78;;;21.90;37.80;;;;;;5013953;28;20048;-74
2021/04/17 09:06:50;;;;;;;6.57;4.22;;;22.00;37.60;;;;;;5013850;28;20064;-75
2021/04/17 09:09:16;;;;;;;7.70;4.50;;;21.90;37.50;;;;;;4996252;28;20056;-76
2021/04/17 09:12:13;;;;;;;12.93;5.53;;;21.90;37.50;;;;;;4996543;28;20049;-75
2021/04/17 09:14:52;;;;;;;13.05;4.82;;;21.80;37.50;;;;;;5014048;28;20041;-74
2021/04/17 09:17:34;;;;;;;12.95;4.78;;;21.70;38.10;;;;;;5014143;28;20033;-76
2021/04/17 09:20:01;;;;;;;8.80;4.80;;;21.70;38.40;;;;;;5012382;28;20045;-75
2021/04/17 09:22:27;;;;;;;7.32;4.38;;;21.60;38.20;;;;;;5013528;28;20041;-75
2021/04/17 09:24:54;;;;;;;8.18;4.05;;;21.60;38.10;;;;;;5013826;28;20044;-75
2021/04/17 09:27:27;;;;;;;5.72;4.55;;;21.70;38.40;;;;;;5013313;28;20513;-76
2021/04/17 09:30:09;;;;;;;9.73;4.53;;;21.60;38.20;;;;;;5014018;28;20041;-75
2021/04/17 09:32:43;;;;;;;8.60;4.43;;;21.70;38.30;;;;;;5012385;28;20048;-75
2021/04/17 09:35:13;;;;;;;8.30;4.10;;;21.60;38.10;;;;;;4995815;28;20417;-75
2021/04/17 09:37:39;;;;;;;4.80;3.80;;;21.70;38.40;;;;;;5013334;28;20095;-76
2021/04/17 09:40:06;;;;;;;8.77;4.32;;;21.70;38.80;;;;;;5013420;28;20046;-73
2021/04/17 09:42:38;;;;;;;5.72;3.55;;;21.70;38.50;;;;;;5013517;28;20133;-75
2021/04/17 09:45:10;;;;;;;5.65;3.85;;;21.70;38.10;;;;;;5012315;28;20041;-75
2021/04/17 09:47:37;;;;;;;5.88;3.63;;;21.70;38.20;;;;;;5013183;28;20438;-77
2021/04/17 09:50:19;;;;;;;5.63;3.60;;;21.70;38.10;;;;;;5013497;28;20037;-75
2021/04/17 09:52:45;;;;;;;5.55;4.05;;;21.60;38.00;;;;;;4995659;28;20033;-75
2021/04/17 09:55:12;;;;;;;4.45;3.75;;;21.60;37.90;;;;;;5013526;28;20430;-75
2021/04/17 09:57:48;;;;;;;4.82;3.20;;;21.60;37.70;;;;;;5013065;28;20065;-75
2021/04/17 10:00:15;;;;;;;5.35;3.65;;;21.50;37.50;;;;;;5013411;28;20026;-78
2021/04/17 10:02:45;;;;;;;5.38;3.50;;;21.50;37.60;;;;;;5012745;28;20096;-75
2021/04/17 10:05:14;;;;;;;5.18;3.13;;;21.50;37.60;;;;;;5012982;28;20537;-75
2021/04/17 10:07:44;;;;;;;7.30;3.72;;;21.50;37.60;;;;;;5012869;28;20148;-75
2021/04/17 10:10:12;;;;;;;4.63;3.00;;;21.50;37.60;;;;;;5011304;28;20042;-75
2021/04/17 10:12:53;;;;;;;8.10;3.72;;;21.40;37.60;;;;;;5012975;28;20124;-75
2021/04/17 10:15:31;;;;;;;5.32;3.38;;;21.40;37.30;;;;;;5012942;28;20033;-75
2021/04/17 10:17:59;;;;;;;3.00;2.60;;;21.40;37.30;;;;;;4995810;28;20125;-76
2021/04/17 10:20:25;;;;;;;7.15;3.47;;;21.40;37.30;;;;;;5012967;28;20417;-76
2021/04/17 10:22:57;;;;;;;4.95;2.90;;;21.40;37.30;;;;;;4995302;28;20065;-74
2021/04/17 10:25:42;;;;;;;4.95;3.40;;;21.40;37.50;;;;;;5012208;28;20041;-75
2021/04/17 10:28:20;;;;;;;8.17;3.13;;;21.40;37.50;;;;;;5012621;28;20136;-75
2021/04/17 10:30:49;;;;;;;10.10;3.90;;;21.30;37.20;;;;;;5013216;28;20445;-75
2021/04/17 10:33:24;;;;;;;4.18;3.22;;;21.30;37.10;;;;;;5012377;28;20045;-75
2021/04/17 10:35:51;;;;;;;6.73;3.07;;;21.30;37.10;;;;;;4995300;28;20026;-75
2021/04/17 10:38:31;;;;;;;3.13;2.70;;;21.40;37.10;;;;;;5012576;28;20038;-76
2021/04/17 10:40:59;;;;;;;3.95;2.72;;;21.40;37.30;;;;;;5012413;28;20088;-74
2021/04/17 10:43:26;;;;;;;5.57;3.10;;;21.40;37.40;;;;;;5012398;28;20486;-75
2021/04/17 10:45:57;;;;;;;6.60;3.33;;;21.40;37.30;;;;;;5012613;28;20041;-76
2021/04/17 10:48:25;;;;;;;6.63;3.28;;;21.40;37.00;;;;;;5012863;28;20100;-74
2021/04/17 10:50:51;;;;;;;9.77;3.55;;;21.40;36.90;;;;;;5012351;28;20410;-75
2021/04/17 10:53:25;;;;;;;4.35;3.10;;;21.40;36.80;;;;;;5012567;28;20037;-76
2021/04/17 10:55:58;;;;;;;6.13;3.27;;;21.40;36.80;;;;;;5012920;28;20049;-78
2021/04/17 10:58:23;;;;;;;4.45;2.90;;;21.40;36.90;;;;;;4994931;28;20038;-76
2021/04/17 11:00:55;;;;;;;4.85;3.47;;;21.30;36.80;;;;;;5012245;28;20609;-75
2021/04/17 11:03:22;;;;;;;4.85;3.33;;;21.30;36.60;;;;;;5012383;28;20038;-75
2021/04/17 11:05:48;;;;;;;4.03;3.20;;;21.30;36.60;;;;;;5012241;28;20516;-75
2021/04/17 11:08:24;;;;;;;7.95;4.00;;;21.20;36.70;;;;;;5012189;28;20173;-75
2021/04/17 11:10:52;;;;;;;6.22;3.28;;;21.20;36.80;;;;;;5012394;28;20450;-76
2021/04/17 11:13:37;;;;;;;10.27;3.95;;;21.30;36.90;;;;;;5012695;28;20041;-74
2021/04/17 11:16:04;;;;;;;7.83;3.40;;;21.30;37.00;;;;;;5012152;28;20030;-74
2021/04/17 11:18:36;;;;;;;6.15;3.30;;;21.30;37.10;;;;;;5012183;28;20760;-76
2021/04/17 11:21:11;;;;;;;5.15;3.83;;;21.40;37.10;;;;;;5012161;28;20041;-76
2021/04/17 11:23:56;;;;;;;5.25;3.10;;;21.40;36.80;;;;;;5012265;28;20030;-76
2021/04/17 11:26:25;;;;;;;5.28;3.10;;;21.40;36.80;;;;;;4994530;28;20128;-74
2021/04/17 11:28:57;;;;;;;4.72;3.90;;;21.30;36.80;;;;;;5012520;28;20040;-76
2021/04/17 11:31:34;;;;;;;4.57;3.58;;;21.30;36.60;;;;;;5012452;28;20034;-74
2021/04/17 11:34:04;;;;;;;6.65;3.05;;;21.30;37.10;;;;;;4995197;28;20457;-75
2021/04/17 11:36:32;;;;;;;7.65;3.20;;;21.30;36.70;;;;;;5012570;28;20108;-76
2021/04/17 11:38:59;;;;;;;5.65;3.50;;;21.30;36.70;;;;;;5014730;28;20490;-75
2021/04/17 11:41:25;;;;;;;7.70;3.40;;;21.20;36.20;;;;;;5015347;28;20053;-75
2021/04/17 11:43:52;;;;;;;6.68;3.67;;;21.10;36.20;;;;;;5015841;28;20096;-79
2021/04/17 11:46:18;;;;;;;5.63;3.10;;;21.10;36.30;;;;;;5015455;28;20461;-73
2021/04/17 11:48:49;;;;;;;7.60;3.60;;;21.10;36.50;;;;;;5015411;28;20076;-78
2021/04/17 11:51:17;;;;;;;10.45;3.13;;;21.20;36.90;;;;;;5002628;28;20034;-75
2021/04/17 11:53:44;;;;;;;6.38;3.28;;;21.20;37.00;;;;;;5021506;28;20160;-77
2021/04/17 11:56:09;;;;;;;7.03;3.25;;;21.20;37.30;;;;;;5020169;28;20042;-75
2021/04/17 11:58:35;;;;;;;8.18;3.30;;;21.30;37.40;;;;;;5015230;28;20034;-75
2021/04/17 12:01:01;;;;;;;7.97;3.90;;;21.30;37.50;;;;;;5015246;28;20054;-76
2021/04/17 12:03:27;;;;;;;9.13;3.70;;;21.30;37.40;;;;;;5014921;28;20117;-76
2021/04/17 12:05:55;;;;;;;7.75;4.13;;;21.30;37.60;;;;;;5015105;28;20037;-76
2021/04/17 12:08:22;;;;;;;9.57;3.10;;;21.30;37.50;;;;;;5013723;28;20033;-76
2021/04/17 12:10:49;;;;;;;9.98;3.78;;;21.30;37.30;;;;;;5015414;28;20120;-76
2021/04/17 12:13:15;;;;;;;6.72;3.45;;;21.20;36.80;;;;;;5015233;28;20042;-76
2021/04/17 12:15:42;;;;;;;6.10;3.40;;;21.20;36.60;;;;;;5015337;28;20036;-75
2021/04/17 12:18:08;;;;;;;11.70;4.03;;;21.10;36.50;;;;;;5014707;28;20042;-76
2021/04/17 12:20:35;;;;;;;8.75;3.72;;;21.10;36.40;;;;;;5014994;28;20045;-79
2021/04/17 12:23:01;;;;;;;6.70;3.80;;;21.10;36.40;;;;;;5014881;28;20030;-77
2021/04/17 12:25:28;;;;;;;8.23;3.70;;;21.10;36.40;;;;;;4997511;28;20104;-73
2021/04/17 12:27:55;;;;;;;7.43;3.63;;;21.10;36.50;;;;;;5015162;28;20459;-77
2021/04/17 12:30:21;;;;;;;7.60;4.78;;;21.10;36.80;;;;;;5014628;28;20034;-76
2021/04/17 12:32:48;;;;;;;8.73;4.82;;;21.00;36.80;;;;;;5019783;28;20045;-79
2021/04/17 12:35:15;;;;;;;7.93;4.53;;;20.90;36.20;;;;;;5023193;28;20502;-79
2021/04/17 12:37:42;;;;;;;7.07;4.30;;;20.80;35.90;;;;;;5008854;28;20398;-80
2021/04/17 12:40:11;;;;;;;13.07;5.35;;;20.80;36.00;;;;;;4989229;28;20034;-83
2021/04/17 12:42:37;;;;;;;10.05;5.57;;;20.70;35.90;;;;;;5005661;28;20080;-81
2021/04/17 12:45:05;;;;;;;8.50;5.57;;;20.60;36.00;;;;;;5023435;28;20471;-80
2021/04/17 12:47:31;;;;;;;8.52;5.35;;;20.50;36.00;;;;;;5020968;28;20168;-80
2021/04/17 12:49:57;;;;;;;15.02;5.30;;;20.50;36.00;;;;;;5023163;28;20446;-80
2021/04/17 12:52:23;;;;;;;9.18;6.13;;;20.50;36.00;;;;;;5014428;28;20076;-78
2021/04/17 12:54:49;;;;;;;10.95;5.20;;;20.40;36.10;;;;;;5014068;28;20080;-77
2021/04/17 12:57:15;;;;;;;8.55;5.07;;;20.30;36.00;;;;;;5014123;28;20073;-79